Paullina, Iowa
Current Conditions -  °F | °C
As of 10:35 PM on Wednesday 22 Oct 2014 (Local Time) from KSHL Reporting Station
Overcast Overcast  
Wind Chill: 59°   Ceiling: 400
Heat Index: 59°   Visibility: 10mi
Dew Point: 59°   Wind: 9mph
Humidity: 100%   Direction: 180°S
Pressure: 30.02"   Gusts: 15mph
Location:  42.98°N, 95.69°W
Report Text: KSHL 230335Z AUTO 18008G13KT 10SM BKN004 OVC011 15/15 A3002 RMK AO2
Loading
Personal Weather Stations






























Interactive Weather Map
Tropical Storm Tracking
New forecast layout! Learn more

10-Day Weather Forecast

Advertisements
Track Severe Weather on mobile